createdAt,value
2017-12-23T00:00:47.295Z,1027.44
2017-12-23T00:01:47.293Z,1027.42
2017-12-23T00:02:47.289Z,1027.40
2017-12-23T00:03:47.284Z,1027.36
2017-12-23T00:04:47.283Z,1027.35
2017-12-23T00:05:47.280Z,1027.37
2017-12-23T00:06:47.279Z,1027.38
2017-12-23T00:07:47.275Z,1027.35
2017-12-23T00:08:47.268Z,1027.36
2017-12-23T00:09:47.269Z,1027.32
2017-12-23T00:10:47.270Z,1027.36
2017-12-23T00:11:47.262Z,1027.32
2017-12-23T00:12:47.267Z,1027.31
2017-12-23T00:13:47.263Z,1027.26
2017-12-23T00:14:47.262Z,1027.24
2017-12-23T00:15:47.255Z,1027.16
2017-12-23T00:16:47.231Z,1027.20
2017-12-23T00:17:47.224Z,1027.22
2017-12-23T00:18:47.222Z,1027.24
2017-12-23T00:19:47.227Z,1027.24
2017-12-23T00:20:47.224Z,1027.20
2017-12-23T00:21:47.217Z,1027.20
2017-12-23T00:22:47.218Z,1027.20
2017-12-23T00:23:47.216Z,1027.16
2017-12-23T00:24:47.211Z,1027.16
2017-12-23T00:25:47.211Z,1027.09
2017-12-23T00:26:47.208Z,1027.10
2017-12-23T00:27:47.209Z,1027.04
2017-12-23T00:28:47.204Z,1027.01
2017-12-23T00:29:47.199Z,1027.02
2017-12-23T00:30:47.198Z,1026.98
2017-12-23T00:31:47.196Z,1026.98
2017-12-23T00:32:47.203Z,1026.95
2017-12-23T00:33:47.188Z,1026.94
2017-12-23T00:34:47.191Z,1026.90
2017-12-23T00:35:47.183Z,1026.87
2017-12-23T00:36:47.184Z,1026.88
2017-12-23T00:37:47.178Z,1026.83
2017-12-23T00:38:47.178Z,1026.78
2017-12-23T00:39:47.221Z,1026.81
2017-12-23T00:40:47.172Z,1026.76
2017-12-23T00:41:47.172Z,1026.78
2017-12-23T00:42:47.174Z,1026.80
2017-12-23T00:43:47.734Z,1026.74
2017-12-23T00:44:47.264Z,1026.76
2017-12-23T00:45:47.163Z,1026.72
2017-12-23T00:46:47.165Z,1026.77
2017-12-23T00:47:47.163Z,1026.77
2017-12-23T00:48:47.155Z,1026.73
2017-12-23T00:49:47.153Z,1026.78
2017-12-23T00:50:47.152Z,1026.77
2017-12-23T00:51:47.153Z,1026.75
2017-12-23T00:52:47.148Z,1026.69
2017-12-23T00:53:47.145Z,1026.69
2017-12-23T00:54:47.147Z,1026.66
2017-12-23T00:55:47.140Z,1026.64
2017-12-23T00:56:47.138Z,1026.62
2017-12-23T00:57:47.141Z,1026.60
2017-12-23T00:58:47.135Z,1026.57
2017-12-23T00:59:47.131Z,1026.57
2017-12-23T01:00:47.130Z,1026.57
2017-12-23T01:01:47.125Z,1026.51
2017-12-23T01:02:47.128Z,1026.55
2017-12-23T01:03:47.123Z,1026.51
2017-12-23T01:04:47.121Z,1026.53
2017-12-23T01:05:47.123Z,1026.49
2017-12-23T01:06:47.120Z,1026.49
2017-12-23T01:07:47.116Z,1026.58
2017-12-23T01:08:47.110Z,1026.65
2017-12-23T01:09:47.112Z,1026.64
2017-12-23T01:10:47.106Z,1026.80
2017-12-23T01:11:47.105Z,1026.80
2017-12-23T01:12:47.100Z,1026.78
2017-12-23T01:13:47.105Z,1026.78
2017-12-23T01:14:47.095Z,1026.73
2017-12-23T01:15:47.106Z,1026.78
2017-12-23T01:16:47.111Z,1026.82
2017-12-23T01:17:47.087Z,1026.92
2017-12-23T01:18:47.087Z,1026.94
2017-12-23T01:19:47.088Z,1026.93
2017-12-23T01:20:47.091Z,1026.94
2017-12-23T01:21:47.115Z,1026.86
2017-12-23T01:22:47.148Z,1026.78
2017-12-23T01:23:47.101Z,1026.71
2017-12-23T01:24:47.083Z,1026.61
2017-12-23T01:25:47.293Z,1026.64
2017-12-23T01:26:47.128Z,1026.60
2017-12-23T01:27:47.074Z,1026.54
2017-12-23T01:28:47.061Z,1026.56
2017-12-23T01:29:47.057Z,1026.52
2017-12-23T01:30:47.056Z,1026.49
2017-12-23T01:31:47.053Z,1026.50
2017-12-23T01:32:47.053Z,1026.46
2017-12-23T01:33:47.054Z,1026.40
2017-12-23T01:34:47.045Z,1026.35
2017-12-23T01:35:47.040Z,1026.43
2017-12-23T01:36:47.037Z,1026.40
2017-12-23T01:37:47.035Z,1026.38
2017-12-23T01:38:47.035Z,1026.39
2017-12-23T01:39:47.035Z,1026.41
2017-12-23T01:40:47.034Z,1026.40
2017-12-23T01:41:47.033Z,1026.44
2017-12-23T01:42:47.031Z,1026.45
2017-12-23T01:43:47.023Z,1026.48
2017-12-23T01:44:47.022Z,1026.48
2017-12-23T01:45:47.014Z,1026.47
2017-12-23T01:46:47.013Z,1026.42
2017-12-23T01:47:47.013Z,1026.34
2017-12-23T01:48:47.013Z,1026.26
2017-12-23T01:49:47.010Z,1026.21
2017-12-23T01:50:47.019Z,1026.18
2017-12-23T01:51:47.056Z,1026.12
2017-12-23T01:52:47.070Z,1026.12
2017-12-23T01:53:47.061Z,1026.13
2017-12-23T01:54:47.017Z,1026.11
2017-12-23T01:55:47.121Z,1026.16
2017-12-23T01:56:47.012Z,1026.11
2017-12-23T01:57:46.985Z,1026.03
2017-12-23T01:58:46.982Z,1026.02
2017-12-23T01:59:46.978Z,1026.02
2017-12-23T02:00:46.979Z,1026.05
2017-12-23T02:01:46.979Z,1026.03
2017-12-23T02:02:46.967Z,1026.07
2017-12-23T02:03:46.971Z,1026.11
2017-12-23T02:04:46.969Z,1026.06
2017-12-23T02:05:46.961Z,1026.02
2017-12-23T02:06:46.959Z,1025.99
2017-12-23T02:07:46.957Z,1025.97
2017-12-23T02:08:46.952Z,1026.01
2017-12-23T02:09:46.948Z,1025.94
2017-12-23T02:10:46.945Z,1025.93
2017-12-23T02:11:46.944Z,1025.90
2017-12-23T02:12:46.943Z,1025.88
2017-12-23T02:13:46.936Z,1025.89
2017-12-23T02:14:46.938Z,1025.86
2017-12-23T02:15:46.930Z,1025.89
2017-12-23T02:16:46.930Z,1025.85
2017-12-23T02:17:46.929Z,1025.85
2017-12-23T02:18:46.927Z,1025.79
2017-12-23T02:19:46.918Z,1025.76
2017-12-23T02:20:46.921Z,1025.65
2017-12-23T02:21:46.919Z,1025.63
2017-12-23T02:22:46.909Z,1025.63
2017-12-23T02:23:46.908Z,1025.55
2017-12-23T02:24:46.905Z,1025.49
2017-12-23T02:25:46.900Z,1025.52
2017-12-23T02:26:46.904Z,1025.45
2017-12-23T02:27:46.893Z,1025.48
2017-12-23T02:28:46.891Z,1025.44
2017-12-23T02:29:46.885Z,1025.33
2017-12-23T02:30:46.940Z,1025.33
2017-12-23T02:31:46.880Z,1025.27
2017-12-23T02:32:46.879Z,1025.21
2017-12-23T02:33:46.879Z,1025.19
2017-12-23T02:34:46.874Z,1025.19
2017-12-23T02:35:46.869Z,1025.18
2017-12-23T02:36:46.870Z,1025.21
2017-12-23T02:37:46.859Z,1025.23
2017-12-23T02:38:46.879Z,1025.16
2017-12-23T02:39:46.856Z,1025.09
2017-12-23T02:40:46.850Z,1025.11
2017-12-23T02:41:46.847Z,1025.07
2017-12-23T02:42:46.846Z,1025.00
2017-12-23T02:43:46.840Z,1024.97
2017-12-23T02:44:46.837Z,1024.99
2017-12-23T02:45:46.840Z,1024.93
2017-12-23T02:46:46.838Z,1024.91
2017-12-23T02:47:46.837Z,1024.91
2017-12-23T02:48:46.833Z,1024.83
2017-12-23T02:49:46.828Z,1024.79
2017-12-23T02:50:46.824Z,1024.81
2017-12-23T02:51:46.819Z,1024.84
2017-12-23T02:52:46.811Z,1024.81
2017-12-23T02:53:46.808Z,1024.84
2017-12-23T02:54:46.806Z,1024.80
2017-12-23T02:55:46.801Z,1024.78
2017-12-23T02:56:46.800Z,1024.74
2017-12-23T02:57:46.796Z,1024.81
2017-12-23T02:58:46.794Z,1024.70
2017-12-23T02:59:46.809Z,1024.69
2017-12-23T03:00:46.782Z,1024.59
2017-12-23T03:01:46.784Z,1024.53
2017-12-23T03:02:46.784Z,1024.53
2017-12-23T03:03:46.780Z,1024.48
2017-12-23T03:04:46.769Z,1024.52
2017-12-23T03:05:46.768Z,1024.46
2017-12-23T03:06:46.761Z,1024.49
2017-12-23T03:07:46.759Z,1024.48
2017-12-23T03:08:46.758Z,1024.46
2017-12-23T03:09:46.754Z,1024.48
2017-12-23T03:10:46.761Z,1024.53
2017-12-23T03:11:46.756Z,1024.41
2017-12-23T03:12:46.741Z,1024.46
2017-12-23T03:13:46.744Z,1024.51
2017-12-23T03:14:46.735Z,1024.53
2017-12-23T03:15:46.730Z,1024.55
2017-12-23T03:16:46.739Z,1024.50
2017-12-23T03:17:46.720Z,1024.41
2017-12-23T03:18:46.719Z,1024.40
2017-12-23T03:19:46.718Z,1024.46
2017-12-23T03:20:46.748Z,1024.41
2017-12-23T03:21:46.719Z,1024.43
2017-12-23T03:22:46.709Z,1024.46
2017-12-23T03:23:46.701Z,1024.43
2017-12-23T03:24:46.773Z,1024.48
2017-12-23T03:25:46.693Z,1024.42
2017-12-23T03:26:46.696Z,1024.44
2017-12-23T03:27:46.681Z,1024.45
2017-12-23T03:28:46.686Z,1024.43
2017-12-23T03:29:46.678Z,1024.48
2017-12-23T03:30:46.691Z,1024.50
2017-12-23T03:31:46.672Z,1024.51
2017-12-23T03:32:46.732Z,1024.56
2017-12-23T03:33:46.660Z,1024.50
2017-12-23T03:34:46.686Z,1024.47
2017-12-23T03:35:46.682Z,1024.45
2017-12-23T03:36:46.702Z,1024.30
2017-12-23T03:37:46.656Z,1024.33
2017-12-23T03:38:46.654Z,1024.45
2017-12-23T03:39:46.672Z,1024.48
2017-12-23T03:40:46.669Z,1024.36
2017-12-23T03:41:46.700Z,1024.36
2017-12-23T03:42:46.630Z,1024.42
2017-12-23T03:43:46.629Z,1024.37
2017-12-23T03:44:46.633Z,1024.36
2017-12-23T03:45:46.617Z,1024.38
2017-12-23T03:46:46.616Z,1024.31
2017-12-23T03:47:46.609Z,1024.17
2017-12-23T03:48:46.603Z,1024.34
2017-12-23T03:49:46.598Z,1024.29
2017-12-23T03:50:46.599Z,1024.37
2017-12-23T03:51:46.592Z,1024.30
2017-12-23T03:52:46.600Z,1024.36
2017-12-23T03:53:46.608Z,1024.31
2017-12-23T03:54:46.580Z,1024.28
2017-12-23T03:55:46.576Z,1024.15
2017-12-23T03:56:46.622Z,1024.13
2017-12-23T03:57:46.581Z,1024.12
2017-12-23T03:58:46.592Z,1023.98
2017-12-23T03:59:46.608Z,1023.97
2017-12-23T04:00:46.668Z,1023.98
2017-12-23T04:01:46.570Z,1024.01
2017-12-23T04:02:46.546Z,1024.02
2017-12-23T04:03:46.583Z,1024.03
2017-12-23T04:04:46.539Z,1024.03
2017-12-23T04:05:46.611Z,1023.92
2017-12-23T04:06:46.542Z,1023.88
2017-12-23T04:07:46.551Z,1023.79
2017-12-23T04:08:46.526Z,1023.76
2017-12-23T04:09:46.517Z,1023.72
2017-12-23T04:10:46.512Z,1023.73
2017-12-23T04:11:46.510Z,1023.76
2017-12-23T04:12:46.507Z,1023.71
2017-12-23T04:13:46.509Z,1023.75
2017-12-23T04:14:46.504Z,1023.75
2017-12-23T04:15:46.503Z,1023.76
2017-12-23T04:16:46.493Z,1023.80
2017-12-23T04:17:46.487Z,1023.72
2017-12-23T04:18:46.488Z,1023.76
2017-12-23T04:19:46.485Z,1023.69
2017-12-23T04:20:46.522Z,1023.71
2017-12-23T04:21:46.474Z,1023.68
2017-12-23T04:22:46.477Z,1023.65
2017-12-23T04:23:46.465Z,1023.56
2017-12-23T04:24:46.466Z,1023.60
2017-12-23T04:25:46.461Z,1023.53
2017-12-23T04:26:46.456Z,1023.64
2017-12-23T04:27:46.454Z,1023.58
2017-12-23T04:28:46.446Z,1023.57
2017-12-23T04:29:46.446Z,1023.62
2017-12-23T04:30:46.442Z,1023.58
2017-12-23T04:31:46.436Z,1023.52
2017-12-23T04:32:46.430Z,1023.53
2017-12-23T04:33:46.425Z,1023.42
2017-12-23T04:34:47.915Z,1023.41
2017-12-23T04:35:46.425Z,1023.47
2017-12-23T04:36:46.419Z,1023.50
2017-12-23T04:37:46.408Z,1023.47
2017-12-23T04:38:46.412Z,1023.46
2017-12-23T04:39:46.404Z,1023.40
2017-12-23T04:40:46.831Z,1023.41
2017-12-23T04:41:46.396Z,1023.41
2017-12-23T04:42:46.397Z,1023.31
2017-12-23T04:43:46.400Z,1023.44
2017-12-23T04:44:46.388Z,1023.37
2017-12-23T04:45:46.409Z,1023.31
2017-12-23T04:46:46.410Z,1023.27
2017-12-23T04:47:46.421Z,1023.28
2017-12-23T04:48:46.400Z,1023.32
2017-12-23T04:49:46.395Z,1023.26
2017-12-23T04:50:46.436Z,1023.33
2017-12-23T04:51:46.451Z,1023.26
2017-12-23T04:52:46.410Z,1023.30
2017-12-23T04:53:46.458Z,1023.28
2017-12-23T04:54:46.424Z,1023.24
2017-12-23T04:55:46.345Z,1023.26
2017-12-23T04:56:46.337Z,1023.29
2017-12-23T04:57:46.486Z,1023.31
2017-12-23T04:58:46.332Z,1023.23
2017-12-23T04:59:46.323Z,1023.17
2017-12-23T05:00:46.322Z,1023.29
2017-12-23T05:01:46.320Z,1023.26
2017-12-23T05:02:46.319Z,1023.21
2017-12-23T05:03:46.307Z,1023.17
2017-12-23T05:04:46.306Z,1023.22
2017-12-23T05:05:46.305Z,1023.25
2017-12-23T05:06:46.303Z,1023.31
2017-12-23T05:07:46.300Z,1023.26
2017-12-23T05:08:46.292Z,1023.22
2017-12-23T05:09:46.325Z,1023.19
2017-12-23T05:10:46.288Z,1023.21
2017-12-23T05:11:46.291Z,1023.22
2017-12-23T05:12:46.280Z,1023.13
2017-12-23T05:13:46.798Z,1023.18
2017-12-23T05:14:46.272Z,1023.11
2017-12-23T05:15:46.269Z,1023.14
2017-12-23T05:16:46.271Z,1023.04
2017-12-23T05:17:46.261Z,1023.07
2017-12-23T05:18:46.256Z,1023.01
2017-12-23T05:19:46.252Z,1022.93
2017-12-23T05:20:46.251Z,1023.03
2017-12-23T05:21:46.251Z,1022.90
2017-12-23T05:22:46.247Z,1023.00
2017-12-23T05:23:46.242Z,1022.95
2017-12-23T05:24:46.235Z,1023.03
2017-12-23T05:25:46.233Z,1022.94
2017-12-23T05:26:46.228Z,1022.98
2017-12-23T05:27:46.226Z,1022.99
2017-12-23T05:28:46.220Z,1023.05
2017-12-23T05:29:46.219Z,1023.08
2017-12-23T05:30:46.212Z,1023.09
2017-12-23T05:31:46.213Z,1023.01
2017-12-23T05:32:46.205Z,1023.06
2017-12-23T05:33:46.202Z,1022.96
2017-12-23T05:34:46.282Z,1023.01
2017-12-23T05:35:46.195Z,1022.90
2017-12-23T05:36:46.197Z,1022.89
2017-12-23T05:37:46.187Z,1022.81
2017-12-23T05:38:46.185Z,1022.88
2017-12-23T05:39:46.191Z,1022.83
2017-12-23T05:40:46.183Z,1022.81
2017-12-23T05:41:46.179Z,1022.80
2017-12-23T05:42:46.176Z,1022.71
2017-12-23T05:43:46.171Z,1022.74
2017-12-23T05:44:46.210Z,1022.73
2017-12-23T05:45:46.163Z,1022.69
2017-12-23T05:46:46.176Z,1022.62
2017-12-23T05:47:46.159Z,1022.58
2017-12-23T05:48:46.154Z,1022.53
2017-12-23T05:49:46.160Z,1022.61
2017-12-23T05:50:46.145Z,1022.61
2017-12-23T05:51:46.138Z,1022.56
2017-12-23T05:52:46.141Z,1022.54
2017-12-23T05:53:46.136Z,1022.49
2017-12-23T05:54:46.131Z,1022.54
2017-12-23T05:55:46.131Z,1022.53
2017-12-23T05:56:46.125Z,1022.54
2017-12-23T05:57:46.122Z,1022.51
2017-12-23T05:58:46.118Z,1022.52
2017-12-23T05:59:46.119Z,1022.46
2017-12-23T06:00:46.112Z,1022.56
2017-12-23T06:01:46.110Z,1022.54
2017-12-23T06:02:46.110Z,1022.45
2017-12-23T06:03:46.113Z,1022.46
2017-12-23T06:04:46.105Z,1022.35
2017-12-23T06:05:46.095Z,1022.36
2017-12-23T06:06:46.093Z,1022.39
2017-12-23T06:07:46.093Z,1022.33
2017-12-23T06:08:46.089Z,1022.33
2017-12-23T06:09:46.085Z,1022.37
2017-12-23T06:10:46.085Z,1022.38
2017-12-23T06:11:46.080Z,1022.39
2017-12-23T06:12:46.078Z,1022.41
2017-12-23T06:13:46.071Z,1022.39
2017-12-23T06:14:46.064Z,1022.35
2017-12-23T06:15:46.068Z,1022.34
2017-12-23T06:16:46.058Z,1022.37
2017-12-23T06:17:46.057Z,1022.39
2017-12-23T06:18:46.061Z,1022.32
2017-12-23T06:19:46.052Z,1022.24
2017-12-23T06:20:46.051Z,1022.29
2017-12-23T06:21:46.048Z,1022.31
2017-12-23T06:22:46.052Z,1022.27
2017-12-23T06:23:46.039Z,1022.29
2017-12-23T06:24:46.037Z,1022.28
2017-12-23T06:25:46.036Z,1022.27
2017-12-23T06:26:46.038Z,1022.28
2017-12-23T06:27:46.032Z,1022.33
2017-12-23T06:28:46.029Z,1022.29
2017-12-23T06:29:46.021Z,1022.34
2017-12-23T06:30:46.020Z,1022.29
2017-12-23T06:31:46.022Z,1022.25
2017-12-23T06:32:46.014Z,1022.19
2017-12-23T06:33:46.009Z,1022.13
2017-12-23T06:34:46.011Z,1022.10
2017-12-23T06:35:46.006Z,1022.07
2017-12-23T06:36:46.008Z,1022.09
2017-12-23T06:37:46.000Z,1022.01
2017-12-23T06:38:45.998Z,1021.98
2017-12-23T06:39:45.995Z,1022.02
2017-12-23T06:40:45.990Z,1021.91
2017-12-23T06:41:45.990Z,1021.87
2017-12-23T06:42:45.995Z,1021.83
2017-12-23T06:43:46.003Z,1021.76
2017-12-23T06:44:46.010Z,1021.71
2017-12-23T06:45:45.993Z,1021.60
2017-12-23T06:46:45.979Z,1021.55
2017-12-23T06:47:46.005Z,1021.52
2017-12-23T06:48:45.989Z,1021.46
2017-12-23T06:49:45.990Z,1021.40
2017-12-23T06:50:45.967Z,1021.37
2017-12-23T06:51:45.969Z,1021.34
2017-12-23T06:52:45.959Z,1021.31
2017-12-23T06:53:45.966Z,1021.35
2017-12-23T06:54:45.957Z,1021.21
2017-12-23T06:55:45.950Z,1021.29
2017-12-23T06:56:45.952Z,1021.18
2017-12-23T06:57:45.953Z,1021.29
2017-12-23T06:58:45.969Z,1021.28
2017-12-23T06:59:45.937Z,1021.21
2017-12-23T07:00:45.943Z,1021.24
2017-12-23T07:01:45.941Z,1021.29
2017-12-23T07:04:18.047Z,1021.35
2017-12-23T07:05:18.006Z,1021.38
2017-12-23T07:06:18.000Z,1021.37
2017-12-23T07:07:17.997Z,1021.42
2017-12-23T07:08:17.996Z,1021.41
2017-12-23T07:09:17.987Z,1021.43
2017-12-23T07:10:17.989Z,1021.40
2017-12-23T07:11:17.985Z,1021.44
2017-12-23T07:12:17.986Z,1021.45
2017-12-23T07:13:17.981Z,1021.34
2017-12-23T07:14:17.984Z,1021.40
2017-12-23T07:15:17.973Z,1021.32
2017-12-23T07:16:17.971Z,1021.36
2017-12-23T07:17:17.969Z,1021.24
2017-12-23T07:18:17.963Z,1021.25
2017-12-23T07:19:17.967Z,1021.23
2017-12-23T07:20:17.961Z,1021.24
2017-12-23T07:21:17.957Z,1021.23
2017-12-23T07:22:17.958Z,1021.27
2017-12-23T07:23:17.955Z,1021.24
2017-12-23T07:24:17.951Z,1021.25
2017-12-23T07:25:17.956Z,1021.25
2017-12-23T07:26:17.957Z,1021.37
2017-12-23T07:27:17.948Z,1021.39
2017-12-23T07:28:17.940Z,1021.41
2017-12-23T07:29:17.935Z,1021.41
2017-12-23T07:30:17.934Z,1021.36
2017-12-23T07:31:17.930Z,1021.40
2017-12-23T07:32:17.928Z,1021.37
2017-12-23T07:33:17.930Z,1021.37
2017-12-23T07:34:17.933Z,1021.48
2017-12-23T07:35:17.922Z,1021.40
2017-12-23T07:36:17.927Z,1021.38
2017-12-23T07:37:17.913Z,1021.45
2017-12-23T07:38:17.913Z,1021.57
2017-12-23T07:39:17.913Z,1021.53
2017-12-23T07:40:17.912Z,1021.46
2017-12-23T07:41:17.909Z,1021.47
2017-12-23T07:42:17.906Z,1021.42
2017-12-23T07:43:17.906Z,1021.44
2017-12-23T07:44:18.036Z,1021.43
2017-12-23T07:45:17.900Z,1021.51
2017-12-23T07:46:17.898Z,1021.50
2017-12-23T07:47:17.924Z,1021.43
2017-12-23T07:48:17.893Z,1021.45
2017-12-23T07:49:17.888Z,1021.48
2017-12-23T07:50:17.885Z,1021.43
2017-12-23T07:51:17.894Z,1021.39
2017-12-23T07:52:17.884Z,1021.39
2017-12-23T07:53:17.879Z,1021.50
2017-12-23T07:54:17.880Z,1021.41
2017-12-23T07:55:17.871Z,1021.46
2017-12-23T07:56:17.875Z,1021.38
2017-12-23T07:57:17.872Z,1021.52
2017-12-23T07:58:17.869Z,1021.44
2017-12-23T07:59:17.864Z,1021.47
2017-12-23T08:00:17.861Z,1021.45
2017-12-23T08:01:17.860Z,1021.40
2017-12-23T08:02:17.859Z,1021.39
2017-12-23T08:03:17.856Z,1021.33
2017-12-23T08:04:17.858Z,1021.29
2017-12-23T08:05:17.851Z,1021.33
2017-12-23T08:06:17.849Z,1021.26
2017-12-23T08:07:17.851Z,1021.32
2017-12-23T08:08:17.840Z,1021.25
2017-12-23T08:09:17.841Z,1021.36
2017-12-23T08:10:17.839Z,1021.31
2017-12-23T08:11:17.837Z,1021.44
2017-12-23T08:12:17.848Z,1021.32
2017-12-23T08:14:50.004Z,1021.45
2017-12-23T08:15:49.922Z,1021.32
2017-12-23T08:16:49.933Z,1021.41
2017-12-23T08:17:49.914Z,1021.37
2017-12-23T08:18:49.930Z,1021.44
2017-12-23T08:19:49.943Z,1021.46
2017-12-23T08:20:49.908Z,1021.46
2017-12-23T08:21:49.922Z,1021.45
2017-12-23T08:22:49.921Z,1021.44
2017-12-23T08:23:49.878Z,1021.44
2017-12-23T08:24:49.886Z,1021.35
2017-12-23T08:25:49.880Z,1021.30
2017-12-23T08:28:21.834Z,1021.28
2017-12-23T08:29:21.546Z,1021.20
2017-12-23T08:31:14.920Z,1021.17
2017-12-23T08:32:14.908Z,1021.18
2017-12-23T08:33:14.906Z,1021.17
2017-12-23T08:34:14.906Z,1021.19
2017-12-23T08:35:14.918Z,1021.12
2017-12-23T08:36:14.899Z,1021.03
2017-12-23T08:37:14.899Z,1021.09
2017-12-23T08:38:14.898Z,1021.02
2017-12-23T08:39:14.891Z,1021.06
2017-12-23T08:40:14.890Z,1021.04
2017-12-23T08:41:14.897Z,1021.07
2017-12-23T08:42:14.885Z,1021.05
2017-12-23T08:43:14.884Z,1021.07
2017-12-23T08:44:14.880Z,1020.95
2017-12-23T08:45:14.877Z,1021.07
2017-12-23T08:46:14.876Z,1021.09
2017-12-23T08:47:14.879Z,1020.97
2017-12-23T08:48:14.888Z,1021.07
2017-12-23T08:49:14.880Z,1021.05
2017-12-23T08:50:14.874Z,1021.19
2017-12-23T08:51:14.870Z,1021.15
2017-12-23T08:52:14.871Z,1021.15
2017-12-23T08:53:14.866Z,1021.22
2017-12-23T08:54:14.863Z,1021.27
2017-12-23T08:55:14.862Z,1021.21
2017-12-23T08:56:14.860Z,1021.30
2017-12-23T08:57:14.861Z,1021.37
2017-12-23T08:58:14.854Z,1021.48
2017-12-23T08:59:14.857Z,1021.45
2017-12-23T09:00:14.851Z,1021.46
2017-12-23T09:01:14.850Z,1021.48
2017-12-23T09:05:19.021Z,1021.39
2017-12-23T09:06:18.987Z,1021.39
2017-12-23T09:07:18.988Z,1021.40
2017-12-23T09:08:18.982Z,1021.39
2017-12-23T09:09:18.982Z,1021.34
2017-12-23T09:10:18.980Z,1021.33
2017-12-23T09:11:18.982Z,1021.38
2017-12-23T09:12:18.977Z,1021.17
2017-12-23T09:13:18.981Z,1021.43
2017-12-23T09:14:18.974Z,1021.40
2017-12-23T09:15:18.971Z,1021.24
2017-12-23T09:16:18.971Z,1021.26
2017-12-23T09:17:18.967Z,1021.21
2017-12-23T09:18:18.966Z,1021.23
2017-12-23T09:19:18.962Z,1021.34
2017-12-23T09:20:18.965Z,1021.38
2017-12-23T09:21:18.960Z,1021.36
2017-12-23T09:22:18.959Z,1021.28
2017-12-23T09:23:18.964Z,1021.24
2017-12-23T09:24:18.956Z,1021.34
2017-12-23T09:25:18.951Z,1021.37
2017-12-23T09:26:18.946Z,1021.30
2017-12-23T09:27:18.948Z,1021.23
2017-12-23T09:28:18.945Z,1021.17
2017-12-23T09:29:18.941Z,1021.17
2017-12-23T09:30:18.943Z,1021.13
2017-12-23T09:31:18.947Z,1021.19
2017-12-23T09:32:18.949Z,1021.17
2017-12-23T09:33:18.941Z,1021.14
2017-12-23T09:34:18.931Z,1021.21
2017-12-23T09:35:18.931Z,1021.22
2017-12-23T09:36:18.929Z,1021.16
2017-12-23T09:37:18.927Z,1021.19
2017-12-23T09:38:18.942Z,1021.12
2017-12-23T09:39:18.923Z,1021.25
2017-12-23T09:40:18.922Z,1021.21
2017-12-23T09:41:18.932Z,1021.26
2017-12-23T09:42:18.916Z,1021.25
2017-12-23T09:43:18.918Z,1021.15
2017-12-23T09:44:18.918Z,1021.15
2017-12-23T09:45:18.918Z,1020.98
2017-12-23T09:46:18.913Z,1021.03
2017-12-23T09:47:18.910Z,1021.00
2017-12-23T09:48:18.912Z,1020.95
2017-12-23T09:49:18.910Z,1020.84
2017-12-23T09:50:18.907Z,1020.82
2017-12-23T09:51:18.904Z,1020.78
2017-12-23T09:52:18.902Z,1020.74
2017-12-23T09:53:18.902Z,1020.69
2017-12-23T09:54:18.899Z,1020.66
2017-12-23T09:55:18.896Z,1020.64
2017-12-23T09:56:18.892Z,1020.64
2017-12-23T09:57:18.917Z,1020.66
2017-12-23T09:58:18.893Z,1020.60
2017-12-23T09:59:18.896Z,1020.70
2017-12-23T10:00:18.892Z,1020.63
2017-12-23T10:01:18.891Z,1020.64
2017-12-23T10:02:18.893Z,1020.61
2017-12-23T10:03:18.887Z,1020.51
2017-12-23T10:04:18.884Z,1020.50
2017-12-23T10:05:18.893Z,1020.43
2017-12-23T10:06:18.878Z,1020.45
2017-12-23T10:07:18.878Z,1020.49
2017-12-23T10:08:18.874Z,1020.52
2017-12-23T10:09:18.870Z,1020.53
2017-12-23T10:10:18.882Z,1020.67
2017-12-23T10:11:18.870Z,1020.65
2017-12-23T10:12:18.871Z,1020.66
2017-12-23T10:13:18.873Z,1020.82
2017-12-23T10:14:18.872Z,1020.70
2017-12-23T10:15:18.862Z,1020.54
2017-12-23T10:16:18.864Z,1020.46
2017-12-23T10:17:18.864Z,1020.61
2017-12-23T10:18:18.860Z,1020.48
2017-12-23T10:19:18.852Z,1020.61
2017-12-23T10:20:18.854Z,1020.61
2017-12-23T10:21:18.848Z,1020.63
2017-12-23T10:22:18.850Z,1020.50
2017-12-23T10:23:18.855Z,1020.37
2017-12-23T10:24:18.847Z,1020.38
2017-12-23T10:25:18.848Z,1020.55
2017-12-23T10:26:18.842Z,1020.44
2017-12-23T10:27:18.842Z,1020.47
2017-12-23T10:28:18.845Z,1020.59
2017-12-23T10:29:18.832Z,1020.62
2017-12-23T10:30:18.840Z,1020.57
2017-12-23T10:31:18.838Z,1020.50
2017-12-23T10:32:18.837Z,1020.57
2017-12-23T10:33:18.827Z,1020.53
2017-12-23T10:34:18.829Z,1020.54
2017-12-23T10:35:18.829Z,1020.52
2017-12-23T10:36:18.823Z,1020.43
2017-12-23T10:37:18.820Z,1020.49
2017-12-23T10:38:18.820Z,1020.50
2017-12-23T10:39:18.829Z,1020.43
2017-12-23T10:40:18.819Z,1020.45
2017-12-23T10:41:18.820Z,1020.44
2017-12-23T10:42:18.812Z,1020.43
2017-12-23T10:43:18.843Z,1020.50
2017-12-23T10:44:18.811Z,1020.42
2017-12-23T10:45:18.807Z,1020.37
2017-12-23T10:46:18.808Z,1020.37
2017-12-23T10:47:18.808Z,1020.21
2017-12-23T10:48:18.802Z,1020.09
2017-12-23T10:49:18.802Z,1020.13
2017-12-23T10:50:18.801Z,1020.05
2017-12-23T10:51:18.812Z,1020.03
2017-12-23T10:52:18.799Z,1020.04
2017-12-23T10:53:18.802Z,1020.15
2017-12-23T10:54:18.793Z,1020.03
2017-12-23T10:55:18.797Z,1020.10
2017-12-23T10:56:18.794Z,1020.04
2017-12-23T10:57:18.793Z,1019.85
2017-12-23T10:58:18.808Z,1019.91
2017-12-23T10:59:18.787Z,1019.97
2017-12-23T11:00:18.792Z,1020.01
2017-12-23T11:01:18.789Z,1020.01
2017-12-23T11:02:18.783Z,1019.95
2017-12-23T11:03:18.781Z,1019.97
2017-12-23T11:04:18.782Z,1019.97
2017-12-23T11:05:18.788Z,1019.95
2017-12-23T11:06:18.781Z,1020.02
2017-12-23T11:07:18.773Z,1019.96
2017-12-23T11:08:18.782Z,1019.86
2017-12-23T11:09:18.825Z,1019.69
2017-12-23T11:10:18.781Z,1019.93
2017-12-23T11:11:18.771Z,1019.87
2017-12-23T11:12:18.804Z,1019.89
2017-12-23T11:13:18.771Z,1019.85
2017-12-23T11:14:18.768Z,1019.90
2017-12-23T11:15:18.767Z,1019.85
2017-12-23T11:16:18.762Z,1019.83
2017-12-23T11:17:18.760Z,1019.88
2017-12-23T11:18:18.760Z,1019.83
2017-12-23T11:19:18.761Z,1019.79
2017-12-23T11:20:18.754Z,1019.70
2017-12-23T11:21:18.784Z,1019.75
2017-12-23T11:22:18.751Z,1019.73
2017-12-23T11:23:18.760Z,1019.68
2017-12-23T11:24:18.753Z,1019.60
2017-12-23T11:25:18.746Z,1019.59
2017-12-23T11:26:18.750Z,1019.59
2017-12-23T11:28:18.744Z,1019.56
2017-12-23T11:29:18.747Z,1019.57
2017-12-23T11:31:50.863Z,1019.45
2017-12-23T11:32:50.810Z,1019.38
2017-12-23T11:33:50.812Z,1019.42
2017-12-23T11:34:50.810Z,1019.12
2017-12-23T11:35:50.808Z,1019.37
2017-12-23T11:36:50.806Z,1019.19
2017-12-23T11:37:50.798Z,1019.13
2017-12-23T11:38:50.797Z,1019.26
2017-12-23T11:39:50.794Z,1019.17
2017-12-23T11:40:50.801Z,1019.14
2017-12-23T11:41:50.793Z,1019.17
2017-12-23T11:42:50.793Z,1019.12
2017-12-23T11:43:50.791Z,1019.28
2017-12-23T11:44:50.789Z,1019.21
2017-12-23T11:45:50.792Z,1019.20
2017-12-23T11:46:50.789Z,1019.08
2017-12-23T11:47:50.789Z,1019.21
2017-12-23T11:48:50.785Z,1019.23
2017-12-23T11:49:50.834Z,1019.24
2017-12-23T11:50:50.783Z,1019.25
2017-12-23T11:51:50.793Z,1019.28
2017-12-23T11:52:50.791Z,1019.19
2017-12-23T11:53:50.777Z,1019.13
2017-12-23T11:54:50.772Z,1019.05
2017-12-23T11:55:50.778Z,1019.21
2017-12-23T11:56:50.775Z,1019.04
2017-12-23T11:57:50.784Z,1018.98
2017-12-23T11:58:50.771Z,1019.02
2017-12-23T11:59:50.781Z,1019.04
2017-12-23T12:00:50.767Z,1018.91
2017-12-23T12:01:50.762Z,1018.94
2017-12-23T12:02:50.774Z,1018.92
2017-12-23T12:03:50.775Z,1018.87
2017-12-23T12:04:50.762Z,1018.79
2017-12-23T12:05:50.760Z,1018.86
2017-12-23T12:06:50.756Z,1018.84
2017-12-23T12:07:50.755Z,1018.86
2017-12-23T12:08:50.752Z,1018.76
2017-12-23T12:09:50.762Z,1018.85
2017-12-23T12:10:50.752Z,1018.81
2017-12-23T12:11:50.751Z,1018.81
2017-12-23T12:12:50.746Z,1018.85
2017-12-23T12:13:50.748Z,1018.79
2017-12-23T12:14:50.748Z,1018.73
2017-12-23T12:15:50.744Z,1018.82
2017-12-23T12:16:50.744Z,1018.95